Time;durP1;ratioP1;P1;durP2;ratioP2;P2;SDS_P1;SDS_P2;PMS_P1;PMS_P2;Temp;Humidity;BMP_temperature;BMP_pressure;BME280_temperature;BME280_humidity;BME280_pressure;Samples;Min_cycle;Max_cycle;Signal;HPM_P1;HPM_P2
2022/07/03 00:00:35;;;;;;;2.25;0.55;;;21.00;61.80;;;;;;4998078;28;20025;-77
2022/07/03 00:03:00;;;;;;;1.77;0.57;;;21.00;61.80;;;;;;4990493;28;20485;-76
2022/07/03 00:05:26;;;;;;;1.50;0.60;;;21.00;61.80;;;;;;4993114;28;20050;-76
2022/07/03 00:07:52;;;;;;;1.13;0.40;;;21.00;61.90;;;;;;5004399;28;20029;-76
2022/07/03 00:10:17;;;;;;;2.08;0.60;;;20.90;61.90;;;;;;5007399;28;20041;-77
2022/07/03 00:12:43;;;;;;;1.05;0.43;;;20.90;62.00;;;;;;4997254;28;20030;-77
2022/07/03 00:15:09;;;;;;;2.22;0.68;;;20.90;62.00;;;;;;4991507;28;20015;-77
2022/07/03 00:17:35;;;;;;;1.40;0.60;;;20.90;62.00;;;;;;4998676;28;20025;-74
2022/07/03 00:20:01;;;;;;;1.45;0.60;;;20.90;62.10;;;;;;4989418;28;20018;-76
2022/07/03 00:22:29;;;;;;;1.83;0.43;;;20.80;62.20;;;;;;5000511;28;20110;-77
2022/07/03 00:25:03;;;;;;;1.00;0.52;;;20.80;62.50;;;;;;4990858;28;20043;-77
2022/07/03 00:27:32;;;;;;;3.00;0.90;;;20.80;62.70;;;;;;4999830;28;20392;-76
2022/07/03 00:30:00;;;;;;;2.28;0.82;;;20.80;62.80;;;;;;4989672;28;20030;-77
2022/07/03 00:32:28;;;;;;;2.13;1.00;;;20.80;63.00;;;;;;4999009;28;20010;-76
2022/07/03 00:34:55;;;;;;;2.13;0.73;;;20.70;63.20;;;;;;5009381;28;20140;-76
2022/07/03 00:37:22;;;;;;;1.73;0.82;;;20.70;63.20;;;;;;4997777;28;20018;-77
2022/07/03 00:39:49;;;;;;;3.10;1.00;;;20.70;63.30;;;;;;5012951;28;20085;-76
2022/07/03 00:42:15;;;;;;;2.00;0.98;;;20.70;63.40;;;;;;4999331;28;20030;-78
2022/07/03 00:44:56;;;;;;;2.88;1.10;;;20.70;63.50;;;;;;5013387;28;20125;-76
2022/07/03 00:47:24;;;;;;;2.10;0.90;;;20.60;63.60;;;;;;4999594;28;20022;-77
2022/07/03 00:49:52;;;;;;;2.08;1.00;;;20.60;63.90;;;;;;4992706;28;20409;-77
2022/07/03 00:52:22;;;;;;;2.90;1.10;;;20.60;64.10;;;;;;5002017;28;20532;-76
2022/07/03 00:54:54;;;;;;;2.28;1.17;;;20.60;64.30;;;;;;4993413;28;20045;-78
2022/07/03 00:57:21;;;;;;;2.80;1.00;;;20.50;64.50;;;;;;4993121;28;20061;-78
2022/07/03 00:59:47;;;;;;;3.78;1.00;;;20.50;64.70;;;;;;4993017;28;20054;-78
2022/07/03 01:02:29;;;;;;;2.92;0.90;;;20.50;64.90;;;;;;4998358;28;20068;-77
2022/07/03 01:05:22;;;;;;;4.35;1.00;;;20.40;64.90;;;;;;4995079;28;20052;-79
2022/07/03 01:08:03;;;;;;;3.15;0.90;;;20.40;65.00;;;;;;4995617;28;20030;-76
2022/07/03 01:10:42;;;;;;;3.03;0.95;;;20.40;65.10;;;;;;5011697;28;20046;-76
2022/07/03 01:13:27;;;;;;;1.63;0.75;;;20.30;65.20;;;;;;5007284;28;20117;-76
2022/07/03 01:16:16;;;;;;;3.03;1.00;;;20.30;66.10;;;;;;4992964;28;20026;-76
2022/07/03 01:18:48;;;;;;;2.50;1.17;;;20.20;65.50;;;;;;4999371;28;20493;-77
2022/07/03 01:21:22;;;;;;;3.70;1.08;;;20.20;65.40;;;;;;5012964;28;20041;-76
2022/07/03 01:24:18;;;;;;;2.67;1.20;;;20.20;65.50;;;;;;5000168;28;20026;-77
2022/07/03 01:26:47;;;;;;;3.15;1.05;;;20.20;65.70;;;;;;5012164;28;20029;-77
2022/07/03 01:29:21;;;;;;;2.70;0.90;;;20.10;65.80;;;;;;5005279;28;20389;-77
2022/07/03 01:31:51;;;;;;;2.47;1.00;;;20.00;65.90;;;;;;4992670;28;20054;-78
2022/07/03 01:34:19;;;;;;;3.85;1.27;;;20.00;66.00;;;;;;5003689;28;20052;-77
2022/07/03 01:36:47;;;;;;;3.65;1.10;;;19.90;66.40;;;;;;4991843;28;20026;-77
2022/07/03 01:39:16;;;;;;;4.68;1.52;;;19.70;67.10;;;;;;4998158;28;20033;-77
2022/07/03 01:41:45;;;;;;;4.15;1.13;;;19.60;67.40;;;;;;5012484;28;20503;-77
2022/07/03 01:44:13;;;;;;;3.30;1.65;;;19.60;68.40;;;;;;5000321;28;20022;-78
2022/07/03 01:46:42;;;;;;;4.65;1.75;;;19.50;68.00;;;;;;5011023;28;20048;-78
2022/07/03 01:49:10;;;;;;;4.00;2.07;;;19.50;68.30;;;;;;5000795;28;20397;-77
2022/07/03 01:51:38;;;;;;;5.65;2.47;;;19.50;68.40;;;;;;5007806;28;20269;-76
2022/07/03 01:54:05;;;;;;;5.43;2.78;;;19.40;68.60;;;;;;5002659;28;20031;-77
2022/07/03 01:56:33;;;;;;;7.78;3.30;;;19.40;69.10;;;;;;5005614;28;20065;-75
2022/07/03 01:59:03;;;;;;;5.70;3.22;;;19.30;69.60;;;;;;5004706;28;20080;-77
2022/07/03 02:01:29;;;;;;;;;;;19.30;69.90;;;;;;5005362;28;20033;-78
2022/07/03 02:04:44;;;;;;;7.68;2.97;;;19.30;69.80;;;;;;5004120;28;20710;-77
2022/07/03 02:07:18;;;;;;;5.53;2.72;;;19.10;70.00;;;;;;4997025;28;20072;-77
2022/07/03 02:09:50;;;;;;;8.98;3.28;;;19.10;70.10;;;;;;4999426;28;20041;-77
2022/07/03 02:12:18;;;;;;;5.65;2.90;;;19.10;70.50;;;;;;5007822;28;20036;-77
2022/07/03 02:15:02;;;;;;;5.43;2.38;;;19.00;70.30;;;;;;5006299;28;20032;-77
2022/07/03 02:17:35;;;;;;;5.05;2.47;;;19.00;70.40;;;;;;4992947;28;20164;-77
2022/07/03 02:20:04;;;;;;;7.43;2.80;;;19.10;70.30;;;;;;4993828;28;20033;-77
2022/07/03 02:22:56;;;;;;;4.78;2.67;;;19.10;70.30;;;;;;5006132;28;20026;-77
2022/07/03 02:25:23;;;;;;;6.38;2.85;;;19.10;70.10;;;;;;5005613;28;20034;-77
2022/07/03 02:28:24;;;;;;;4.38;2.78;;;19.10;70.30;;;;;;4992394;28;20034;-77
2022/07/03 02:30:54;;;;;;;5.75;2.70;;;19.10;70.40;;;;;;4993667;28;20081;-78
2022/07/03 02:33:25;;;;;;;5.05;2.50;;;19.10;70.20;;;;;;4989833;28;20539;-78
2022/07/03 02:35:54;;;;;;;4.30;2.10;;;19.10;70.20;;;;;;4999419;28;20733;-78
2022/07/03 02:38:21;;;;;;;5.30;2.23;;;19.10;70.00;;;;;;4999054;28;20088;-77
2022/07/03 02:40:52;;;;;;;5.20;2.30;;;19.10;70.00;;;;;;4993915;28;20050;-77
2022/07/03 02:43:47;;;;;;;5.65;2.67;;;19.10;70.00;;;;;;5006602;28;20060;-76
2022/07/03 02:49:13;;;;;;;;;;;19.10;70.00;;;;;;4990051;28;20133;-77
2022/07/03 02:51:43;;;;;;;4.93;2.00;;;19.10;70.10;;;;;;5001463;28;19913;-77
2022/07/03 02:54:13;;;;;;;6.07;1.60;;;19.10;70.20;;;;;;4989343;28;20029;-77
2022/07/03 02:57:06;;;;;;;4.45;2.10;;;19.10;70.10;;;;;;5001021;28;20496;-77
2022/07/03 02:59:44;;;;;;;4.78;2.05;;;19.10;70.20;;;;;;5001031;28;20033;-77
2022/07/03 03:02:14;;;;;;;4.75;2.22;;;19.10;70.30;;;;;;4996622;28;20087;-78
2022/07/03 03:04:48;;;;;;;4.35;1.98;;;19.10;70.40;;;;;;5008748;28;20132;-77
2022/07/03 03:07:17;;;;;;;4.65;2.40;;;19.10;70.60;;;;;;4996262;28;20435;-77
2022/07/03 03:09:46;;;;;;;5.88;2.60;;;19.00;70.80;;;;;;5010026;28;20041;-77
2022/07/03 03:12:14;;;;;;;4.17;2.10;;;19.00;71.00;;;;;;4998331;28;20095;-77
2022/07/03 03:14:41;;;;;;;4.53;1.92;;;19.00;71.00;;;;;;4991110;28;20023;-78
2022/07/03 03:17:08;;;;;;;4.20;2.00;;;19.00;71.20;;;;;;4999274;28;20352;-77
2022/07/03 03:19:44;;;;;;;4.50;2.17;;;19.00;71.10;;;;;;4991229;28;20041;-77
2022/07/03 03:22:26;;;;;;;5.82;2.20;;;18.90;70.90;;;;;;4993045;28;20022;-77
2022/07/03 03:24:52;;;;;;;4.55;2.50;;;18.90;70.90;;;;;;5007999;28;20029;-77
2022/07/03 03:27:19;;;;;;;3.55;1.67;;;18.90;71.10;;;;;;5004295;28;20022;-76
2022/07/03 03:29:45;;;;;;;4.10;2.03;;;18.90;71.00;;;;;;4992413;28;20365;-78
2022/07/03 03:32:11;;;;;;;4.53;1.77;;;18.90;70.90;;;;;;4993346;28;20023;-78
2022/07/03 03:34:38;;;;;;;3.50;1.50;;;18.90;70.80;;;;;;5003772;28;20119;-78
2022/07/03 03:37:03;;;;;;;4.63;1.70;;;18.90;70.90;;;;;;5004590;28;20078;-78
2022/07/03 03:39:29;;;;;;;4.28;1.83;;;18.90;71.00;;;;;;5001272;28;20054;-77
2022/07/03 03:41:56;;;;;;;4.70;1.67;;;18.90;71.20;;;;;;5007094;28;20018;-77
2022/07/03 03:44:21;;;;;;;5.28;1.67;;;18.90;71.20;;;;;;4998347;28;20033;-78
2022/07/03 03:46:47;;;;;;;3.60;1.67;;;18.90;71.30;;;;;;5008238;28;20015;-78
2022/07/03 03:49:13;;;;;;;4.30;1.42;;;18.90;71.30;;;;;;5007094;28;20101;-77
2022/07/03 03:51:39;;;;;;;4.57;1.52;;;19.00;71.30;;;;;;5008779;28;20053;-77
2022/07/03 03:54:05;;;;;;;2.50;1.33;;;19.00;71.20;;;;;;5003252;28;20065;-78
2022/07/03 03:56:31;;;;;;;4.55;1.30;;;19.00;70.90;;;;;;4990296;28;20241;-78
2022/07/03 03:58:56;;;;;;;5.78;1.60;;;19.00;71.00;;;;;;4994507;28;20160;-77
2022/07/03 04:01:22;;;;;;;3.38;1.30;;;19.00;70.50;;;;;;4989336;28;20027;-76
2022/07/03 04:03:48;;;;;;;4.35;1.55;;;19.00;70.10;;;;;;4990222;28;20046;-77
2022/07/03 04:06:13;;;;;;;4.38;1.70;;;19.10;70.30;;;;;;5007201;28;20018;-76
2022/07/03 04:08:39;;;;;;;5.32;1.60;;;19.10;70.40;;;;;;5004374;28;20038;-77
2022/07/03 04:11:04;;;;;;;4.03;1.40;;;19.20;70.00;;;;;;4992679;28;20034;-77
2022/07/03 04:13:30;;;;;;;3.22;1.67;;;19.20;69.80;;;;;;4998939;28;20034;-77
2022/07/03 04:15:57;;;;;;;3.03;1.38;;;19.30;70.00;;;;;;4998875;28;20037;-77
2022/07/03 04:18:23;;;;;;;4.95;1.77;;;19.30;70.70;;;;;;4993453;28;20022;-78
2022/07/03 04:20:49;;;;;;;3.33;1.23;;;19.30;69.90;;;;;;5004455;28;20033;-78
2022/07/03 04:23:15;;;;;;;3.10;1.33;;;19.30;69.70;;;;;;5009660;28;20023;-78
2022/07/03 04:25:40;;;;;;;4.07;1.73;;;19.30;69.50;;;;;;5012429;28;20026;-77
2022/07/03 04:28:06;;;;;;;2.25;1.13;;;19.30;69.60;;;;;;5012064;28;20468;-78
2022/07/03 04:30:32;;;;;;;3.35;1.17;;;19.40;69.90;;;;;;5010991;28;20065;-78
2022/07/03 04:32:57;;;;;;;2.78;1.50;;;19.30;69.80;;;;;;5012861;28;20025;-78
2022/07/03 04:35:23;;;;;;;4.93;1.35;;;19.40;69.90;;;;;;5003716;28;20026;-77
2022/07/03 04:37:48;;;;;;;3.75;1.70;;;19.30;69.80;;;;;;4998233;28;20492;-77
2022/07/03 04:40:14;;;;;;;4.00;1.70;;;19.30;69.80;;;;;;4999499;28;20311;-76
2022/07/03 04:42:40;;;;;;;5.65;1.50;;;19.20;69.70;;;;;;5011770;28;20092;-77
2022/07/03 04:45:07;;;;;;;2.08;1.20;;;19.20;69.90;;;;;;5006381;28;20076;-76
2022/07/03 04:47:32;;;;;;;4.32;2.10;;;19.20;70.20;;;;;;4993736;28;20033;-78
2022/07/03 04:49:58;;;;;;;7.78;1.35;;;19.10;70.40;;;;;;4999745;28;20018;-77
2022/07/03 04:52:24;;;;;;;3.63;1.33;;;19.10;70.60;;;;;;5012129;28;20037;-77
2022/07/03 04:54:49;;;;;;;4.22;1.70;;;19.10;70.70;;;;;;5008024;28;20034;-77
2022/07/03 04:57:15;;;;;;;5.07;1.60;;;19.10;70.80;;;;;;4999029;28;20084;-77
2022/07/03 04:59:41;;;;;;;4.97;1.58;;;19.10;70.90;;;;;;5000290;28;20050;-76
2022/07/03 05:02:07;;;;;;;4.00;1.58;;;19.20;70.80;;;;;;4992022;28;20033;-75
2022/07/03 05:04:33;;;;;;;4.50;2.10;;;19.20;70.60;;;;;;4992279;28;20047;-77
2022/07/03 05:06:59;;;;;;;8.15;2.10;;;19.30;70.10;;;;;;5002547;28;20026;-77
2022/07/03 05:09:25;;;;;;;5.20;1.60;;;19.40;69.80;;;;;;4992222;28;20033;-77
2022/07/03 05:11:51;;;;;;;4.60;1.88;;;19.40;69.70;;;;;;5011608;28;20550;-76
2022/07/03 05:14:16;;;;;;;4.68;1.67;;;19.50;69.50;;;;;;5011158;28;20033;-77
2022/07/03 05:16:42;;;;;;;4.63;1.83;;;19.60;69.60;;;;;;5003882;28;20031;-78
2022/07/03 05:19:07;;;;;;;5.03;1.85;;;19.70;69.50;;;;;;4990828;28;20038;-77
2022/07/03 05:21:33;;;;;;;6.13;2.15;;;19.70;69.60;;;;;;5016569;28;20065;-77
2022/07/03 05:23:59;;;;;;;4.82;1.60;;;19.70;69.50;;;;;;5019306;28;20049;-77
2022/07/03 05:26:24;;;;;;;4.57;1.30;;;19.80;69.70;;;;;;5007847;28;20026;-78
2022/07/03 05:28:50;;;;;;;6.30;1.83;;;19.80;69.70;;;;;;5005782;28;20096;-76
2022/07/03 05:31:16;;;;;;;4.38;1.70;;;19.80;69.80;;;;;;5006626;28;20033;-77
2022/07/03 05:33:41;;;;;;;5.28;1.67;;;19.80;70.00;;;;;;4997249;28;20054;-78
2022/07/03 05:36:07;;;;;;;4.35;1.42;;;19.90;70.30;;;;;;5001802;28;20026;-77
2022/07/03 05:41:18;;;;;;;4.63;1.33;;;20.00;70.00;;;;;;5008761;28;20040;-78
2022/07/03 05:43:45;;;;;;;6.32;2.00;;;20.10;70.80;;;;;;5018701;28;20396;-79
2022/07/03 05:46:11;;;;;;;3.63;1.65;;;20.10;70.30;;;;;;5006580;28;20076;-76
2022/07/03 05:48:37;;;;;;;3.42;1.83;;;20.00;70.40;;;;;;5000279;28;20032;-77
2022/07/03 05:51:03;;;;;;;5.53;1.85;;;20.00;70.70;;;;;;4993884;28;20022;-76
2022/07/03 05:53:29;;;;;;;5.25;2.38;;;19.90;71.10;;;;;;5000061;28;20081;-78
2022/07/03 05:55:55;;;;;;;4.30;2.55;;;19.90;71.50;;;;;;5008987;28;20153;-77
2022/07/03 05:58:21;;;;;;;7.22;3.65;;;19.90;72.00;;;;;;5020891;28;20533;-76
2022/07/03 06:00:46;;;;;;;5.45;2.97;;;19.90;72.30;;;;;;4990695;28;20101;-76
2022/07/03 06:03:12;;;;;;;6.85;2.95;;;19.90;72.80;;;;;;5003101;28;20400;-78
2022/07/03 06:05:38;;;;;;;5.40;2.40;;;20.00;72.10;;;;;;4992434;28;20065;-78
2022/07/03 06:08:04;;;;;;;5.32;2.35;;;20.20;71.60;;;;;;4996812;28;20029;-78
2022/07/03 06:10:30;;;;;;;5.18;2.53;;;20.20;71.40;;;;;;4992003;28;20026;-77
2022/07/03 06:12:56;;;;;;;6.45;3.10;;;20.40;71.10;;;;;;5001204;28;20030;-78
2022/07/03 06:15:22;;;;;;;5.60;1.95;;;20.40;70.40;;;;;;4996136;28;20042;-78
2022/07/03 06:17:47;;;;;;;5.97;2.10;;;20.50;70.30;;;;;;4999336;28;20103;-78
2022/07/03 06:20:13;;;;;;;4.80;2.15;;;20.60;70.10;;;;;;4995806;28;20030;-76
2022/07/03 06:22:40;;;;;;;3.97;1.60;;;20.70;69.50;;;;;;4995352;28;20114;-76
2022/07/03 06:25:06;;;;;;;5.30;1.58;;;20.80;69.40;;;;;;5010631;28;20388;-77
2022/07/03 06:27:32;;;;;;;2.78;1.20;;;20.80;69.10;;;;;;5007344;28;20333;-76
2022/07/03 06:29:57;;;;;;;7.50;2.22;;;20.90;68.90;;;;;;4999319;28;20041;-76
2022/07/03 06:32:23;;;;;;;3.55;1.55;;;20.90;68.60;;;;;;5006510;28;20029;-76
2022/07/03 06:34:49;;;;;;;7.28;1.70;;;21.00;68.60;;;;;;5008062;28;20018;-76
2022/07/03 06:37:15;;;;;;;3.60;1.20;;;21.10;68.70;;;;;;5008429;28;20109;-77
2022/07/03 06:39:41;;;;;;;3.15;1.33;;;21.20;68.50;;;;;;5004266;28;20022;-76
2022/07/03 06:42:06;;;;;;;4.20;1.20;;;21.20;68.10;;;;;;4989697;28;20023;-77
2022/07/03 06:44:32;;;;;;;2.58;0.95;;;21.30;67.70;;;;;;4996960;28;20155;-77
2022/07/03 06:46:58;;;;;;;5.28;1.02;;;21.30;67.40;;;;;;4999853;28;20582;-77
2022/07/03 06:49:24;;;;;;;5.93;1.10;;;21.40;67.10;;;;;;5000460;28;20026;-77
2022/07/03 06:51:50;;;;;;;2.28;0.80;;;21.50;66.00;;;;;;4999609;28;20034;-77
2022/07/03 06:54:15;;;;;;;5.28;1.00;;;21.60;65.90;;;;;;5011442;28;20751;-77
2022/07/03 06:56:44;;;;;;;5.32;1.55;;;21.80;65.90;;;;;;5009579;28;20029;-77
2022/07/03 06:59:10;;;;;;;5.57;1.40;;;21.80;65.70;;;;;;5008478;28;20369;-77
2022/07/03 07:01:35;;;;;;;3.35;0.80;;;21.90;64.80;;;;;;5009105;28;20032;-77
2022/07/03 07:04:02;;;;;;;5.05;1.00;;;21.90;64.60;;;;;;5008704;28;20057;-78
2022/07/03 07:06:28;;;;;;;4.90;0.80;;;22.00;63.40;;;;;;5008905;28;20105;-76
2022/07/03 07:08:54;;;;;;;2.80;0.77;;;22.00;63.00;;;;;;5003781;28;20134;-75
2022/07/03 07:11:20;;;;;;;4.68;1.27;;;22.00;62.00;;;;;;4999606;28;20491;-79
2022/07/03 07:13:45;;;;;;;3.42;1.02;;;22.10;62.30;;;;;;5017557;28;20678;-80
2022/07/03 07:16:11;;;;;;;5.35;1.42;;;22.20;62.50;;;;;;5011972;28;20026;-79
2022/07/03 07:18:36;;;;;;;4.80;1.08;;;22.30;62.70;;;;;;5011492;28;20049;-79
2022/07/03 07:21:03;;;;;;;3.85;1.00;;;22.30;61.20;;;;;;5010297;28;20017;-80
2022/07/03 07:23:29;;;;;;;4.97;1.02;;;22.30;61.30;;;;;;5008831;28;20026;-79
2022/07/03 07:25:54;;;;;;;3.88;1.23;;;22.40;61.40;;;;;;5011012;28;20029;-80
2022/07/03 07:28:20;;;;;;;5.28;1.30;;;22.50;62.10;;;;;;5008581;28;20030;-80
2022/07/03 07:30:46;;;;;;;4.28;0.95;;;22.60;61.80;;;;;;5004844;28;20018;-81
2022/07/03 07:33:12;;;;;;;5.45;1.15;;;22.70;61.30;;;;;;5007721;28;20029;-81
2022/07/03 07:35:37;;;;;;;5.70;1.27;;;22.80;61.00;;;;;;4996758;28;20018;-81
2022/07/03 07:38:03;;;;;;;5.90;1.60;;;22.90;61.40;;;;;;4999144;28;20435;-81
2022/07/03 07:40:28;;;;;;;5.50;1.65;;;23.00;60.50;;;;;;5004425;28;20096;-80
2022/07/03 07:42:54;;;;;;;5.10;1.27;;;22.90;62.00;;;;;;5007261;28;20029;-81
2022/07/03 07:45:20;;;;;;;4.22;1.08;;;22.90;61.80;;;;;;5003149;28;20053;-81
2022/07/03 07:47:45;;;;;;;3.67;1.00;;;22.80;62.00;;;;;;5002422;28;20098;-80
2022/07/03 07:50:11;;;;;;;3.42;1.10;;;22.80;61.70;;;;;;5011311;28;20070;-81
2022/07/03 07:52:37;;;;;;;4.43;1.10;;;22.80;61.10;;;;;;5005218;28;20023;-81
2022/07/03 07:55:05;;;;;;;5.93;1.08;;;22.90;61.80;;;;;;4995031;28;20457;-79
2022/07/03 07:57:34;;;;;;;4.40;0.82;;;23.00;61.50;;;;;;5004004;28;20022;-79
2022/07/03 08:00:05;;;;;;;4.57;0.90;;;23.10;60.80;;;;;;5004757;28;20072;-80
2022/07/03 08:07:59;;;;;;;4.57;0.90;;;23.20;58.60;;;;;;5011926;28;20120;-78
2022/07/03 08:10:26;;;;;;;4.00;1.02;;;23.10;57.90;;;;;;5012527;28;20034;-78
2022/07/03 08:12:52;;;;;;;3.95;0.93;;;23.10;58.10;;;;;;5001808;28;20635;-79
2022/07/03 08:15:17;;;;;;;3.42;0.95;;;23.10;57.80;;;;;;4993231;28;20101;-81
2022/07/03 08:17:43;;;;;;;4.22;1.20;;;23.00;59.00;;;;;;5005310;28;20037;-78
2022/07/03 08:20:09;;;;;;;3.33;0.70;;;23.10;59.60;;;;;;4999922;28;20022;-79
2022/07/03 08:22:38;;;;;;;4.13;1.27;;;23.10;58.80;;;;;;5000498;28;20030;-80
2022/07/03 08:25:04;;;;;;;6.97;1.23;;;23.30;59.50;;;;;;5011706;28;20068;-80
2022/07/03 08:27:30;;;;;;;5.60;1.23;;;23.40;59.30;;;;;;5004181;28;20034;-77
2022/07/03 08:29:56;;;;;;;4.88;1.23;;;23.50;59.20;;;;;;5011050;28;20080;-77
2022/07/03 08:32:21;;;;;;;5.35;1.25;;;23.60;59.70;;;;;;5009393;28;20071;-77
2022/07/03 08:34:48;;;;;;;7.10;1.33;;;23.80;59.00;;;;;;5003046;28;20033;-80
2022/07/03 08:37:13;;;;;;;4.38;1.35;;;23.80;56.50;;;;;;5011064;28;20033;-79
2022/07/03 08:39:39;;;;;;;4.68;1.27;;;23.80;57.90;;;;;;5006945;28;20022;-79
2022/07/03 08:42:06;;;;;;;4.07;1.25;;;24.00;58.70;;;;;;5009456;28;20030;-78
2022/07/03 08:44:34;;;;;;;5.43;1.25;;;24.20;59.30;;;;;;5002663;28;20030;-79
2022/07/03 08:47:03;;;;;;;4.28;1.38;;;24.40;58.40;;;;;;5009346;28;20033;-78
2022/07/03 08:49:29;;;;;;;5.30;1.80;;;24.60;57.30;;;;;;5011793;28;20038;-79
2022/07/03 08:51:55;;;;;;;4.65;1.00;;;24.70;56.30;;;;;;5010293;28;20045;-78
2022/07/03 08:54:21;;;;;;;4.10;1.23;;;24.70;56.40;;;;;;4993221;28;20022;-78
2022/07/03 08:56:47;;;;;;;3.05;0.70;;;24.70;56.40;;;;;;4992198;28;20022;-78
2022/07/03 08:59:15;;;;;;;3.20;1.10;;;24.80;56.40;;;;;;4999559;28;20018;-77
2022/07/03 09:01:43;;;;;;;5.22;1.13;;;25.00;55.70;;;;;;5008578;28;20042;-79
2022/07/03 09:04:14;;;;;;;4.95;1.25;;;25.00;54.80;;;;;;5004439;28;20041;-78
2022/07/03 09:06:41;;;;;;;5.05;0.85;;;25.00;54.30;;;;;;4990181;28;20464;-79
2022/07/03 09:09:11;;;;;;;4.47;0.93;;;25.10;55.00;;;;;;4993240;28;20038;-77
2022/07/03 09:11:37;;;;;;;4.43;0.88;;;25.20;54.00;;;;;;4999459;28;20104;-77
2022/07/03 09:14:06;;;;;;;5.03;1.23;;;25.20;51.90;;;;;;5008079;28;20109;-77
2022/07/03 09:16:35;;;;;;;5.07;0.85;;;25.10;51.50;;;;;;4992174;28;20476;-78
2022/07/03 09:19:02;;;;;;;3.03;1.13;;;25.10;51.40;;;;;;4999333;28;20037;-78
2022/07/03 09:21:38;;;;;;;3.80;1.00;;;25.10;52.60;;;;;;4992644;28;20018;-77
2022/07/03 09:24:06;;;;;;;4.93;1.08;;;25.30;52.60;;;;;;4993636;28;20040;-76
2022/07/03 09:26:32;;;;;;;4.80;1.35;;;25.30;52.60;;;;;;5004723;28;20105;-77
2022/07/03 09:28:58;;;;;;;4.57;1.30;;;25.40;53.80;;;;;;5003315;28;20015;-76
2022/07/03 09:31:25;;;;;;;3.40;0.98;;;25.60;52.70;;;;;;5002660;28;20037;-77
2022/07/03 09:34:09;;;;;;;2.30;0.90;;;25.60;53.20;;;;;;5007259;28;20032;-77
2022/07/03 09:36:45;;;;;;;5.13;1.30;;;25.70;53.60;;;;;;5001429;28;20044;-76
2022/07/03 09:39:11;;;;;;;3.97;0.98;;;25.70;53.40;;;;;;4995818;28;20021;-76
2022/07/03 09:41:59;;;;;;;4.70;1.50;;;25.80;53.30;;;;;;4996016;28;20043;-76
2022/07/03 09:44:30;;;;;;;2.80;0.95;;;25.80;52.90;;;;;;4998089;28;20049;-77
2022/07/03 09:47:07;;;;;;;;;;;25.60;53.80;;;;;;4994268;28;20530;-77
2022/07/03 09:49:56;;;;;;;6.20;1.70;;;25.60;54.40;;;;;;4994449;28;19922;-77
2022/07/03 09:52:38;;;;;;;4.57;1.13;;;25.60;54.20;;;;;;4978323;28;20434;-77
2022/07/03 09:55:09;;;;;;;5.63;1.17;;;25.50;55.10;;;;;;4996663;28;20034;-77
2022/07/03 09:57:44;;;;;;;2.85;1.20;;;25.50;55.20;;;;;;4994293;28;20361;-76
2022/07/03 10:00:13;;;;;;;3.22;1.20;;;25.60;54.60;;;;;;4995707;28;20033;-78
2022/07/03 10:03:06;;;;;;;3.83;1.17;;;25.70;53.40;;;;;;5005878;28;20030;-78
2022/07/03 10:05:37;;;;;;;4.43;1.23;;;25.80;53.60;;;;;;4997062;28;20041;-77
2022/07/03 10:08:08;;;;;;;4.78;1.05;;;25.80;53.40;;;;;;4993709;28;20029;-78
2022/07/03 10:10:35;;;;;;;7.22;1.38;;;25.80;54.50;;;;;;4994073;28;20076;-78
2022/07/03 10:13:02;;;;;;;3.97;1.25;;;25.70;54.40;;;;;;4990345;28;20014;-78
2022/07/03 10:15:30;;;;;;;3.90;1.10;;;25.70;53.60;;;;;;4995256;28;20101;-78
2022/07/03 10:17:57;;;;;;;4.55;0.70;;;25.90;53.30;;;;;;4995620;28;20064;-78
2022/07/03 10:20:34;;;;;;;4.43;0.80;;;26.00;53.00;;;;;;4993783;28;20042;-78
2022/07/03 10:23:01;;;;;;;5.60;1.65;;;26.00;53.00;;;;;;4997729;28;20118;-78
2022/07/03 10:25:27;;;;;;;5.75;1.70;;;26.20;53.10;;;;;;4992808;28;20097;-75
2022/07/03 10:27:54;;;;;;;4.57;1.10;;;26.20;53.10;;;;;;4999870;28;20142;-76
2022/07/03 10:30:21;;;;;;;2.35;0.90;;;26.10;53.00;;;;;;4992245;28;20104;-76
2022/07/03 10:32:49;;;;;;;1.42;0.70;;;26.20;52.60;;;;;;4997438;28;20075;-77
2022/07/03 10:35:20;;;;;;;3.70;0.90;;;26.40;52.20;;;;;;5009413;28;20026;-77
2022/07/03 10:38:17;;;;;;;5.07;1.20;;;26.60;52.90;;;;;;4992883;28;20497;-77
2022/07/03 10:46:26;;;;;;;4.85;1.13;;;26.20;53.00;;;;;;5005104;28;20029;-78
2022/07/03 10:49:03;;;;;;;4.25;1.00;;;26.00;54.10;;;;;;5001596;28;20022;-78
2022/07/03 10:51:45;;;;;;;4.35;1.10;;;25.90;54.50;;;;;;5003980;28;20046;-77
2022/07/03 10:54:31;;;;;;;6.90;1.23;;;25.90;53.30;;;;;;4997609;28;20053;-77
2022/07/03 10:57:02;;;;;;;5.28;1.20;;;25.80;53.50;;;;;;4994131;28;20692;-77
2022/07/03 10:59:39;;;;;;;3.53;1.00;;;26.10;54.00;;;;;;4996331;28;20365;-77
2022/07/03 11:02:23;;;;;;;6.78;1.50;;;26.20;52.70;;;;;;5003396;28;20037;-76
2022/07/03 11:04:58;;;;;;;2.00;0.80;;;26.30;51.40;;;;;;5005250;28;20149;-77
2022/07/03 11:07:35;;;;;;;2.47;0.57;;;26.30;51.80;;;;;;5006000;28;20026;-79
2022/07/03 11:10:10;;;;;;;3.50;0.90;;;26.40;50.60;;;;;;4993572;28;20095;-77
2022/07/03 11:13:01;;;;;;;4.43;1.10;;;26.60;51.20;;;;;;4994130;28;20023;-76
2022/07/03 11:15:36;;;;;;;5.03;1.05;;;26.90;50.30;;;;;;5007273;28;20026;-76
2022/07/03 11:18:05;;;;;;;2.03;0.80;;;27.10;51.10;;;;;;5004988;28;20061;-78
2022/07/03 11:20:33;;;;;;;2.45;0.80;;;27.10;49.80;;;;;;4992399;28;20030;-77
2022/07/03 11:23:27;;;;;;;3.22;0.75;;;27.20;49.80;;;;;;4991628;28;20053;-77
2022/07/03 11:25:54;;;;;;;2.80;0.63;;;27.20;49.10;;;;;;4989447;28;20117;-77
2022/07/03 11:28:31;;;;;;;1.73;0.70;;;27.00;49.20;;;;;;4997802;28;20017;-76
2022/07/03 11:31:18;;;;;;;1.67;0.50;;;26.70;49.60;;;;;;4990452;28;20105;-76
2022/07/03 11:33:53;;;;;;;5.18;1.42;;;26.70;51.50;;;;;;4990510;28;20057;-77
2022/07/03 11:36:22;;;;;;;2.45;0.93;;;26.90;50.70;;;;;;5008139;28;20395;-76
2022/07/03 11:38:54;;;;;;;2.45;1.00;;;26.90;50.80;;;;;;5002018;28;20097;-76
2022/07/03 11:41:21;;;;;;;3.63;0.70;;;26.80;51.20;;;;;;4990261;28;20033;-76
2022/07/03 11:43:48;;;;;;;3.70;0.70;;;26.70;51.10;;;;;;4992577;28;20026;-76
2022/07/03 11:46:20;;;;;;;2.95;1.10;;;26.60;51.70;;;;;;5004647;28;20021;-76
2022/07/03 11:48:46;;;;;;;2.85;0.68;;;26.60;50.90;;;;;;5001634;28;20023;-77
2022/07/03 11:51:12;;;;;;;3.13;0.77;;;26.80;50.10;;;;;;5001812;28;20381;-77
2022/07/03 11:53:39;;;;;;;1.42;0.50;;;27.00;48.50;;;;;;5003005;28;20160;-76
2022/07/03 11:56:08;;;;;;;2.28;0.70;;;27.00;49.40;;;;;;4997015;28;20049;-76
2022/07/03 11:58:50;;;;;;;3.10;0.93;;;27.20;48.10;;;;;;4990650;28;20038;-75
2022/07/03 12:01:22;;;;;;;2.70;0.90;;;27.40;46.20;;;;;;4988803;28;20473;-75
2022/07/03 12:03:49;;;;;;;1.90;0.70;;;27.60;46.50;;;;;;4993319;28;20054;-76
2022/07/03 12:06:15;;;;;;;4.75;0.80;;;27.70;47.60;;;;;;4996950;28;20034;-77
2022/07/03 12:08:45;;;;;;;2.30;0.73;;;27.90;47.00;;;;;;5004787;28;20014;-76
2022/07/03 12:11:15;;;;;;;2.22;0.75;;;27.90;46.30;;;;;;5007462;28;20041;-77
2022/07/03 12:13:42;;;;;;;2.97;0.60;;;27.60;45.60;;;;;;5006769;28;20451;-77
2022/07/03 12:16:15;;;;;;;1.90;0.75;;;27.60;47.00;;;;;;5000235;28;20358;-76
2022/07/03 12:18:42;;;;;;;3.53;0.80;;;27.80;49.70;;;;;;4989726;28;20076;-76
2022/07/03 12:21:09;;;;;;;2.92;0.80;;;27.90;48.60;;;;;;4998927;28;20021;-76
2022/07/03 12:23:52;;;;;;;2.20;0.55;;;27.70;45.90;;;;;;4988719;28;20438;-77
2022/07/03 12:26:28;;;;;;;6.82;1.08;;;27.30;47.00;;;;;;4999532;28;20088;-76
2022/07/03 12:28:55;;;;;;;2.22;0.75;;;27.20;46.60;;;;;;4988746;28;20350;-75
2022/07/03 12:31:23;;;;;;;2.17;0.63;;;27.10;46.60;;;;;;5004321;28;20033;-76
2022/07/03 12:33:52;;;;;;;2.20;0.60;;;27.10;46.50;;;;;;5008321;28;20101;-76
2022/07/03 12:36:17;;;;;;;1.92;0.50;;;27.10;47.10;;;;;;5002873;28;20483;-75
2022/07/03 12:38:48;;;;;;;1.33;0.60;;;27.20;47.10;;;;;;5003829;28;20108;-76
2022/07/03 12:41:15;;;;;;;2.10;0.68;;;27.50;48.00;;;;;;4997022;28;20045;-76
2022/07/03 12:43:42;;;;;;;1.02;0.40;;;27.60;47.20;;;;;;5009540;28;20057;-76
2022/07/03 12:46:33;;;;;;;1.38;0.60;;;27.70;46.80;;;;;;5003822;28;20125;-76
2022/07/03 12:49:07;;;;;;;2.05;0.65;;;27.80;45.90;;;;;;4988178;28;20041;-74
2022/07/03 12:51:45;;;;;;;2.60;0.80;;;27.80;46.50;;;;;;4992938;28;20500;-76
2022/07/03 12:54:33;;;;;;;2.95;0.68;;;27.90;48.00;;;;;;4989003;28;20026;-76
2022/07/03 13:00:05;;;;;;;2.63;0.60;;;27.80;45.30;;;;;;4999223;28;20052;-75
2022/07/03 13:02:31;;;;;;;5.05;1.13;;;27.70;46.20;;;;;;5004856;28;20034;-76
2022/07/03 13:05:01;;;;;;;5.30;0.98;;;27.70;46.40;;;;;;4992971;28;20054;-75
2022/07/03 13:07:30;;;;;;;2.38;0.60;;;27.80;46.30;;;;;;5000277;28;20034;-76
2022/07/03 13:10:00;;;;;;;3.17;0.60;;;27.80;47.20;;;;;;5011235;28;20040;-76
2022/07/03 13:12:26;;;;;;;2.28;0.57;;;27.60;46.90;;;;;;4999010;28;20022;-76
2022/07/03 13:15:01;;;;;;;3.13;0.80;;;27.40;46.40;;;;;;5011036;28;20033;-74
2022/07/03 13:18:04;;;;;;;1.60;0.80;;;27.00;46.20;;;;;;4998079;28;20109;-76
2022/07/03 13:20:32;;;;;;;3.58;0.65;;;26.80;48.70;;;;;;4991542;28;20109;-77